createdAt,value
2023-04-07T00:00:52.172Z,0.65
2023-04-07T00:02:50.174Z,0.82
2023-04-07T00:04:48.085Z,1.10
2023-04-07T00:06:45.984Z,1.13
2023-04-07T00:08:43.997Z,0.60
2023-04-07T00:10:41.964Z,0.82
2023-04-07T00:12:40.084Z,0.82
2023-04-07T00:14:38.706Z,0.93
2023-04-07T00:16:38.023Z,1.17
2023-04-07T00:18:36.012Z,0.77
2023-04-07T00:20:34.167Z,1.55
2023-04-07T00:22:32.317Z,1.30
2023-04-07T00:24:34.315Z,1.10
2023-04-07T00:26:33.132Z,1.73
2023-04-07T00:28:31.241Z,0.40
2023-04-07T00:30:29.291Z,0.65
2023-04-07T00:32:28.546Z,0.30
2023-04-07T00:34:26.480Z,0.98
2023-04-07T00:36:24.472Z,0.40
2023-04-07T00:38:22.496Z,1.05
2023-04-07T00:40:20.382Z,1.48
2023-04-07T00:42:18.191Z,1.67
2023-04-07T00:44:16.291Z,1.27
2023-04-07T00:46:14.186Z,1.15
2023-04-07T00:48:13.594Z,0.75
2023-04-07T00:50:12.080Z,0.95
2023-04-07T00:52:11.390Z,0.93
2023-04-07T00:54:10.345Z,0.73
2023-04-07T00:56:08.563Z,1.60
2023-04-07T00:58:06.635Z,2.17
2023-04-07T01:00:05.338Z,1.05
2023-04-07T01:02:07.060Z,2.30
2023-04-07T01:04:08.896Z,1.05
2023-04-07T01:06:07.890Z,2.47
2023-04-07T01:08:10.134Z,1.30
2023-04-07T01:10:11.691Z,1.25
2023-04-07T01:12:25.817Z,1.80
2023-04-07T01:14:25.563Z,1.33
2023-04-07T01:16:32.416Z,1.67
2023-04-07T01:18:32.900Z,1.77
2023-04-07T01:20:33.755Z,0.95
2023-04-07T01:22:34.914Z,2.00
2023-04-07T01:25:00.270Z,1.92
2023-04-07T01:27:01.866Z,1.30
2023-04-07T01:29:17.150Z,2.60
2023-04-07T01:31:16.907Z,1.73
2023-04-07T01:33:15.834Z,1.30
2023-04-07T01:35:14.872Z,1.25
2023-04-07T01:37:13.215Z,2.25
2023-04-07T01:39:11.499Z,1.27
2023-04-07T01:41:11.049Z,1.63
2023-04-07T01:43:09.485Z,2.63
2023-04-07T01:45:09.109Z,2.40
2023-04-07T01:47:09.052Z,2.75
2023-04-07T01:49:07.726Z,2.55
2023-04-07T01:51:06.148Z,1.67
2023-04-07T01:53:04.742Z,1.50
2023-04-07T01:55:04.708Z,2.15
2023-04-07T01:57:04.951Z,1.40
2023-04-07T01:59:02.974Z,1.88
2023-04-07T02:01:01.086Z,2.42
2023-04-07T02:03:02.762Z,1.35
2023-04-07T02:05:03.397Z,3.45
2023-04-07T02:07:03.152Z,1.23
2023-04-07T02:09:08.370Z,2.22
2023-04-07T02:11:08.208Z,2.65
2023-04-07T02:13:09.077Z,1.77
2023-04-07T02:15:08.529Z,2.17
2023-04-07T02:17:07.107Z,1.52
2023-04-07T02:19:06.570Z,4.13
2023-04-07T02:21:05.883Z,0.88
2023-04-07T02:23:03.928Z,2.13
2023-04-07T02:25:01.838Z,1.40
2023-04-07T02:27:01.038Z,2.38
2023-04-07T02:28:59.120Z,2.13
2023-04-07T02:30:57.030Z,2.88
2023-04-07T02:32:55.981Z,2.22
2023-04-07T02:34:55.582Z,2.67
2023-04-07T02:36:53.458Z,1.88
2023-04-07T02:38:51.323Z,2.08
2023-04-07T02:40:49.225Z,1.30
2023-04-07T02:42:47.671Z,3.47
2023-04-07T02:44:45.732Z,1.90
2023-04-07T02:46:43.631Z,1.85
2023-04-07T02:48:41.525Z,2.75
2023-04-07T02:50:42.932Z,1.27
2023-04-07T02:52:41.150Z,2.33
2023-04-07T02:54:43.051Z,1.50
2023-04-07T02:56:42.593Z,1.63
2023-04-07T02:58:40.439Z,1.88
2023-04-07T03:00:39.138Z,0.82
2023-04-07T03:02:44.052Z,1.65
2023-04-07T03:04:42.666Z,1.02
2023-04-07T03:06:41.832Z,1.92
2023-04-07T03:08:44.262Z,1.55
2023-04-07T03:10:42.207Z,1.67
2023-04-07T03:12:40.661Z,1.85
2023-04-07T03:14:38.682Z,4.25
2023-04-07T03:16:36.545Z,1.65
2023-04-07T03:18:38.832Z,1.17
2023-04-07T03:20:36.731Z,1.85
2023-04-07T03:22:42.253Z,1.10
2023-04-07T03:24:46.291Z,1.65
2023-04-07T03:26:44.546Z,2.55
2023-04-07T03:28:52.233Z,3.13
2023-04-07T03:30:50.894Z,0.70
2023-04-07T03:32:50.503Z,1.13
2023-04-07T03:34:48.460Z,0.73
2023-04-07T03:36:46.386Z,0.85
2023-04-07T03:38:46.003Z,0.73
2023-04-07T03:40:44.098Z,1.45
2023-04-07T03:42:42.171Z,1.15
2023-04-07T03:44:41.769Z,0.35
2023-04-07T03:46:39.676Z,1.00
2023-04-07T03:48:38.213Z,0.57
2023-04-07T03:50:38.872Z,0.73
2023-04-07T03:52:43.637Z,0.95
2023-04-07T03:54:53.682Z,1.15
2023-04-07T03:56:57.007Z,1.40
2023-04-07T03:58:55.215Z,2.40
2023-04-07T04:01:00.133Z,1.95
2023-04-07T04:02:58.152Z,1.92
2023-04-07T04:04:56.598Z,1.77
2023-04-07T04:06:55.122Z,2.20
2023-04-07T04:09:14.038Z,2.42
2023-04-07T04:11:17.623Z,2.33
2023-04-07T04:13:24.469Z,1.83
2023-04-07T04:15:22.696Z,2.20
2023-04-07T04:17:22.143Z,2.33
2023-04-07T04:19:20.970Z,2.90
2023-04-07T04:21:20.774Z,2.58
2023-04-07T04:23:18.742Z,2.60
2023-04-07T04:25:17.682Z,2.28
2023-04-07T04:27:21.303Z,1.70
2023-04-07T04:29:24.538Z,2.47
2023-04-07T04:31:23.305Z,3.75
2023-04-07T04:33:21.487Z,2.30
2023-04-07T04:35:27.770Z,1.30
2023-04-07T04:37:37.948Z,1.90
2023-04-07T04:39:40.769Z,2.25
2023-04-07T04:41:42.384Z,2.25
2023-04-07T04:43:43.704Z,3.45
2023-04-07T04:45:45.771Z,1.98
2023-04-07T04:47:45.736Z,2.85
2023-04-07T04:49:43.866Z,2.70
2023-04-07T04:51:42.047Z,2.97
2023-04-07T04:53:46.019Z,2.65
2023-04-07T04:55:47.346Z,3.65
2023-04-07T04:57:49.764Z,2.30
2023-04-07T04:59:55.261Z,2.47
2023-04-07T05:01:53.290Z,2.75
2023-04-07T05:03:52.270Z,2.63
2023-04-07T05:05:57.362Z,3.08
2023-04-07T05:07:55.449Z,2.72
2023-04-07T05:09:55.008Z,2.88
2023-04-07T05:11:53.297Z,3.13
2023-04-07T05:13:52.931Z,3.80
2023-04-07T05:15:52.903Z,2.50
2023-04-07T05:17:51.201Z,3.70
2023-04-07T05:19:54.315Z,3.45
2023-04-07T05:22:04.320Z,3.70
2023-04-07T05:24:09.350Z,4.20
2023-04-07T05:26:08.432Z,2.45
2023-04-07T05:28:07.362Z,3.05
2023-04-07T05:30:05.598Z,2.20
2023-04-07T05:32:07.929Z,3.17
2023-04-07T05:34:06.884Z,2.78
2023-04-07T05:36:09.517Z,1.80
2023-04-07T05:38:07.646Z,1.70
2023-04-07T05:40:06.821Z,1.90
2023-04-07T05:42:04.850Z,3.75
2023-04-07T05:44:02.983Z,2.38
2023-04-07T05:46:05.034Z,1.80
2023-04-07T05:48:06.616Z,4.32
2023-04-07T05:50:14.143Z,1.42
2023-04-07T05:52:14.586Z,2.30
2023-04-07T05:54:15.547Z,2.00
2023-04-07T05:56:13.877Z,3.38
2023-04-07T05:58:17.697Z,2.95
2023-04-07T06:00:20.787Z,24.38
2023-04-07T06:02:28.841Z,4.70
2023-04-07T06:04:32.141Z,6.68
2023-04-07T06:06:31.437Z,5.43
2023-04-07T06:08:29.484Z,2.78
2023-04-07T06:10:27.931Z,2.95
2023-04-07T06:12:25.920Z,2.58
2023-04-07T06:14:24.998Z,2.42
2023-04-07T06:16:22.871Z,2.40
2023-04-07T06:18:20.987Z,2.83
2023-04-07T06:20:21.646Z,2.45
2023-04-07T06:22:19.626Z,2.75
2023-04-07T06:24:17.486Z,1.95
2023-04-07T06:26:15.606Z,2.58
2023-04-07T06:28:13.605Z,1.25
2023-04-07T06:30:12.194Z,2.20
2023-04-07T06:32:10.077Z,2.25
2023-04-07T06:34:08.252Z,2.45
2023-04-07T06:36:08.022Z,1.60
2023-04-07T06:38:07.584Z,0.68
2023-04-07T06:40:05.995Z,2.28
2023-04-07T06:42:04.157Z,2.75
2023-04-07T06:44:09.448Z,2.72
2023-04-07T06:46:07.591Z,2.08
2023-04-07T06:48:06.081Z,2.78
2023-04-07T06:50:04.020Z,2.30
2023-04-07T06:52:03.306Z,1.48
2023-04-07T06:54:01.218Z,1.98
2023-04-07T06:56:05.775Z,2.45
2023-04-07T06:58:03.797Z,1.80
2023-04-07T07:00:02.012Z,2.83
2023-04-07T07:02:00.253Z,1.70
2023-04-07T07:03:58.491Z,3.42
2023-04-07T07:05:57.630Z,3.45
2023-04-07T07:07:56.948Z,4.47
2023-04-07T07:09:54.851Z,2.13
2023-04-07T07:11:52.918Z,1.83
2023-04-07T07:13:51.275Z,1.33
2023-04-07T07:15:49.074Z,1.67
2023-04-07T07:17:47.047Z,1.80
2023-04-07T07:19:44.918Z,1.67
2023-04-07T07:21:42.794Z,1.25
2023-04-07T07:23:42.146Z,0.90
2023-04-07T07:25:40.196Z,0.52
2023-04-07T07:27:37.971Z,0.32
2023-04-07T07:29:35.953Z,2.05
2023-04-07T07:31:34.184Z,0.90
2023-04-07T07:33:32.199Z,0.55
2023-04-07T07:35:30.303Z,0.95
2023-04-07T07:37:29.080Z,0.40
2023-04-07T07:39:28.434Z,0.60
2023-04-07T07:41:26.343Z,0.43
2023-04-07T07:43:24.233Z,0.40
2023-04-07T07:45:22.098Z,0.63
2023-04-07T07:47:20.094Z,0.70
2023-04-07T07:49:18.183Z,0.35
2023-04-07T07:51:16.220Z,0.40
2023-04-07T07:53:14.074Z,0.45
2023-04-07T07:55:13.325Z,0.45
2023-04-07T07:57:11.316Z,0.22
2023-04-07T07:59:09.339Z,1.13
2023-04-07T08:01:07.290Z,0.30
2023-04-07T08:03:05.324Z,0.57
2023-04-07T08:05:03.353Z,0.47
2023-04-07T08:07:01.553Z,0.47
2023-04-07T08:08:59.513Z,0.20
2023-04-07T08:10:58.735Z,0.30
2023-04-07T08:12:56.545Z,0.30
2023-04-07T08:14:54.530Z,0.77
2023-04-07T08:16:52.400Z,0.68
2023-04-07T08:18:50.545Z,1.10
2023-04-07T08:20:48.669Z,0.47
2023-04-07T08:22:46.470Z,0.40
2023-04-07T08:24:44.502Z,1.63
2023-04-07T08:26:45.603Z,0.40
2023-04-07T08:28:43.528Z,0.52
2023-04-07T08:30:41.394Z,0.52
2023-04-07T08:32:39.880Z,0.47
2023-04-07T08:34:37.874Z,0.30
2023-04-07T08:36:35.817Z,0.52
2023-04-07T08:38:33.711Z,0.10
2023-04-07T08:40:31.634Z,0.55
2023-04-07T08:42:31.656Z,0.28
2023-04-07T08:44:31.128Z,0.30
2023-04-07T08:46:29.283Z,0.85
2023-04-07T08:48:30.053Z,0.47
2023-04-07T08:50:28.564Z,0.17
2023-04-07T08:52:31.172Z,0.53
2023-04-07T08:54:29.776Z,0.20
2023-04-07T08:56:27.768Z,0.55
2023-04-07T08:58:27.304Z,0.10
2023-04-07T09:00:25.649Z,0.20
2023-04-07T09:02:24.098Z,0.55
2023-04-07T09:04:23.098Z,0.30
2023-04-07T09:06:21.158Z,0.63
2023-04-07T09:08:19.120Z,0.20
2023-04-07T09:10:17.515Z,0.50
2023-04-07T09:12:15.972Z,0.30
2023-04-07T09:14:16.207Z,0.73
2023-04-07T09:16:15.052Z,0.22
2023-04-07T09:18:13.048Z,0.30
2023-04-07T09:20:11.447Z,1.05
2023-04-07T09:22:12.569Z,0.40
2023-04-07T09:24:21.786Z,0.57
2023-04-07T09:26:20.653Z,0.20
2023-04-07T09:28:18.571Z,0.50
2023-04-07T09:30:17.942Z,0.73
2023-04-07T09:32:36.195Z,0.55
2023-04-07T09:34:34.690Z,0.70
2023-04-07T09:36:42.487Z,0.98
2023-04-07T09:38:41.291Z,0.20
2023-04-07T09:40:39.292Z,0.20
2023-04-07T09:42:39.605Z,0.32
2023-04-07T09:44:41.027Z,0.63
2023-04-07T09:46:50.763Z,0.60
2023-04-07T09:48:48.748Z,0.20
2023-04-07T09:50:49.732Z,0.40
2023-04-07T09:52:52.644Z,0.43
2023-04-07T09:54:51.115Z,0.73
2023-04-07T09:56:50.638Z,0.57
2023-04-07T09:58:51.960Z,0.75
2023-04-07T10:00:50.507Z,0.60
2023-04-07T10:02:51.341Z,0.40
2023-04-07T10:04:49.436Z,0.75
2023-04-07T10:06:47.832Z,0.45
2023-04-07T10:08:46.293Z,0.90
2023-04-07T10:10:44.853Z,0.50
2023-04-07T10:12:43.314Z,0.60
2023-04-07T10:14:46.884Z,0.60
2023-04-07T10:16:45.544Z,1.10
2023-04-07T10:18:46.735Z,0.30
2023-04-07T10:20:44.783Z,0.80
2023-04-07T10:22:43.872Z,0.52
2023-04-07T10:24:48.385Z,0.32
2023-04-07T10:26:47.478Z,0.88
2023-04-07T10:28:47.852Z,0.30
2023-04-07T10:30:46.274Z,0.17
2023-04-07T10:32:48.246Z,0.55
2023-04-07T10:35:01.278Z,0.68
2023-04-07T10:37:13.587Z,0.43
2023-04-07T10:39:20.948Z,0.65
2023-04-07T10:41:35.118Z,0.32
2023-04-07T10:43:40.018Z,0.70
2023-04-07T10:46:02.761Z,0.55
2023-04-07T10:48:13.544Z,0.80
2023-04-07T10:50:22.883Z,0.32
2023-04-07T10:52:24.304Z,0.30
2023-04-07T10:54:23.303Z,0.50
2023-04-07T10:56:21.746Z,1.15
2023-04-07T10:58:23.849Z,2.60
2023-04-07T11:00:22.106Z,0.90
2023-04-07T11:02:33.930Z,0.28
2023-04-07T11:04:37.795Z,1.23
2023-04-07T11:06:37.059Z,0.40
2023-04-07T11:08:35.172Z,1.83
2023-04-07T11:10:33.031Z,1.42
2023-04-07T11:12:31.200Z,0.47
2023-04-07T11:14:29.552Z,0.45
2023-04-07T11:16:36.711Z,0.55
2023-04-07T11:18:34.808Z,0.70
2023-04-07T11:20:42.267Z,0.70
2023-04-07T11:22:42.611Z,1.02
2023-04-07T11:24:40.654Z,0.98
2023-04-07T11:26:40.254Z,0.22
2023-04-07T11:28:45.891Z,0.50
2023-04-07T11:30:47.435Z,0.70
2023-04-07T11:32:49.127Z,0.52
2023-04-07T11:34:47.424Z,0.73
2023-04-07T11:36:48.079Z,0.88
2023-04-07T11:38:47.265Z,0.38
2023-04-07T11:40:45.276Z,1.23
2023-04-07T11:42:46.242Z,0.88
2023-04-07T11:44:46.498Z,1.45
2023-04-07T11:46:53.967Z,3.53
2023-04-07T11:48:51.903Z,0.88
2023-04-07T11:50:49.883Z,1.20
2023-04-07T11:52:48.292Z,0.82
2023-04-07T11:54:49.926Z,0.57
2023-04-07T11:56:49.014Z,0.68
2023-04-07T11:58:49.964Z,3.30
2023-04-07T12:00:54.644Z,2.15
2023-04-07T12:02:52.867Z,0.70
2023-04-07T12:04:57.455Z,0.73
2023-04-07T12:08:53.014Z,0.70
2023-04-07T12:11:04.397Z,1.05
2023-04-07T12:13:02.453Z,0.93
2023-04-07T12:15:00.561Z,1.00
2023-04-07T12:16:59.117Z,1.20
2023-04-07T12:18:57.603Z,0.75
2023-04-07T12:20:55.579Z,0.32
2023-04-07T12:22:53.988Z,0.70
2023-04-07T12:24:51.826Z,0.82
2023-04-07T12:26:51.239Z,0.77
2023-04-07T12:28:49.663Z,0.35
2023-04-07T12:30:47.545Z,0.68
2023-04-07T12:32:45.422Z,0.80
2023-04-07T12:34:44.006Z,0.47
2023-04-07T12:36:42.022Z,0.35
2023-04-07T12:38:39.947Z,0.40
2023-04-07T12:40:38.297Z,0.68
2023-04-07T12:42:37.653Z,1.45
2023-04-07T12:44:35.758Z,0.93
2023-04-07T12:46:33.765Z,0.35
2023-04-07T12:48:31.912Z,0.40
2023-04-07T12:50:30.546Z,0.75
2023-04-07T12:52:28.693Z,0.70
2023-04-07T12:54:26.885Z,1.05
2023-04-07T12:56:24.797Z,0.50
2023-04-07T12:58:24.566Z,0.28
2023-04-07T13:00:22.724Z,0.70
2023-04-07T13:02:21.308Z,0.40
2023-04-07T13:04:19.616Z,0.95
2023-04-07T13:06:17.653Z,0.73
2023-04-07T13:08:15.531Z,0.47
2023-04-07T13:10:13.424Z,1.17
2023-04-07T13:12:12.216Z,1.30
2023-04-07T13:14:11.562Z,0.45
2023-04-07T13:16:09.647Z,0.70
2023-04-07T13:18:08.256Z,0.70
2023-04-07T13:20:07.523Z,0.95
2023-04-07T13:22:06.375Z,0.47
2023-04-07T13:24:04.347Z,0.55
2023-04-07T13:26:02.172Z,0.55
2023-04-07T13:28:00.752Z,0.43
2023-04-07T13:29:59.994Z,0.73
2023-04-07T13:32:05.742Z,0.80
2023-04-07T13:34:03.751Z,0.73
2023-04-07T13:36:01.653Z,0.60
2023-04-07T13:37:59.686Z,0.60
2023-04-07T13:39:57.603Z,0.90
2023-04-07T13:41:56.137Z,0.90
2023-04-07T13:43:53.981Z,0.55
2023-04-07T13:45:53.247Z,0.75
2023-04-07T13:47:51.464Z,0.38
2023-04-07T13:49:49.345Z,0.70
2023-04-07T13:51:47.176Z,0.88
2023-04-07T13:53:45.012Z,0.88
2023-04-07T13:55:42.845Z,0.93
2023-04-07T13:57:40.788Z,0.50
2023-04-07T13:59:38.741Z,0.57
2023-04-07T14:01:39.174Z,0.70
2023-04-07T14:03:37.498Z,1.05
2023-04-07T14:05:35.933Z,1.20
2023-04-07T14:07:34.663Z,1.05
2023-04-07T14:09:32.772Z,0.93
2023-04-07T14:11:30.725Z,0.60
2023-04-07T14:13:28.738Z,0.70
2023-04-07T14:15:26.713Z,1.55
2023-04-07T14:17:26.170Z,0.60
2023-04-07T14:19:24.480Z,0.70
2023-04-07T14:21:22.299Z,0.70
2023-04-07T14:23:33.979Z,1.25
2023-04-07T14:25:34.380Z,0.88
2023-04-07T14:27:32.352Z,1.10
2023-04-07T14:29:30.418Z,0.70
2023-04-07T14:31:28.194Z,0.68
2023-04-07T14:33:27.564Z,0.82
2023-04-07T14:35:25.656Z,1.27
2023-04-07T14:37:26.453Z,1.08
2023-04-07T14:39:25.791Z,1.08
2023-04-07T14:41:23.648Z,1.05
2023-04-07T14:43:21.592Z,0.73
2023-04-07T14:45:19.836Z,0.40
2023-04-07T14:47:17.776Z,0.70
2023-04-07T14:49:17.011Z,1.20
2023-04-07T14:51:14.982Z,1.52
2023-04-07T14:53:12.996Z,1.20
2023-04-07T14:55:11.021Z,1.55
2023-04-07T14:57:08.828Z,0.88
2023-04-07T14:59:06.811Z,1.08
2023-04-07T15:01:06.144Z,1.55
2023-04-07T15:03:04.806Z,0.75
2023-04-07T15:05:04.616Z,0.88
2023-04-07T15:07:02.451Z,0.73
2023-04-07T15:09:00.442Z,0.65
2023-04-07T15:10:58.864Z,1.23
2023-04-07T15:12:56.725Z,1.00
2023-04-07T15:14:54.713Z,0.95
2023-04-07T15:16:53.376Z,1.38
2023-04-07T15:18:51.387Z,1.05
2023-04-07T15:20:50.775Z,0.60
2023-04-07T15:22:48.656Z,0.73
2023-04-07T15:24:46.837Z,0.40
2023-04-07T15:26:44.678Z,0.88
2023-04-07T15:28:42.603Z,1.23
2023-04-07T15:30:40.441Z,1.02
2023-04-07T15:32:38.225Z,1.95
2023-04-07T15:34:36.200Z,0.45
2023-04-07T15:36:35.436Z,1.25
2023-04-07T15:38:33.544Z,1.77
2023-04-07T15:40:31.432Z,1.35
2023-04-07T15:42:29.202Z,0.45
2023-04-07T15:44:27.111Z,0.88
2023-04-07T15:46:24.986Z,1.10
2023-04-07T15:48:22.918Z,1.13
2023-04-07T15:50:20.950Z,1.25
2023-04-07T15:52:20.224Z,1.10
2023-04-07T15:54:18.219Z,1.13
2023-04-07T15:56:16.176Z,1.15
2023-04-07T15:58:14.009Z,1.40
2023-04-07T16:00:12.191Z,0.63
2023-04-07T16:02:12.314Z,1.05
2023-04-07T16:04:11.490Z,1.10
2023-04-07T16:06:09.476Z,0.95
2023-04-07T16:08:08.854Z,0.80
2023-04-07T16:10:08.511Z,2.22
2023-04-07T16:12:06.627Z,1.17
2023-04-07T16:14:05.429Z,0.80
2023-04-07T16:16:04.105Z,1.65
2023-04-07T16:18:02.057Z,0.88
2023-04-07T16:20:00.110Z,0.80
2023-04-07T16:21:57.984Z,1.35
2023-04-07T16:23:57.436Z,0.95
2023-04-07T16:25:55.537Z,1.23
2023-04-07T16:27:53.630Z,2.10
2023-04-07T16:29:51.648Z,2.70
2023-04-07T16:31:49.521Z,1.88
2023-04-07T16:33:47.656Z,0.85
2023-04-07T16:35:45.857Z,1.23
2023-04-07T16:37:46.193Z,0.75
2023-04-07T16:39:46.297Z,1.27
2023-04-07T16:41:44.668Z,0.98
2023-04-07T16:43:42.625Z,1.02
2023-04-07T16:45:40.626Z,0.95
2023-04-07T16:47:38.878Z,1.25
2023-04-07T16:49:38.188Z,1.75
2023-04-07T16:51:36.330Z,0.77
2023-04-07T16:53:36.912Z,1.60
2023-04-07T16:55:38.249Z,0.57
2023-04-07T16:57:36.397Z,2.42
2023-04-07T16:59:34.752Z,0.52
2023-04-07T17:01:32.872Z,1.63
2023-04-07T17:03:31.188Z,1.58
2023-04-07T17:05:29.799Z,0.75
2023-04-07T17:07:27.780Z,1.15
2023-04-07T17:09:25.931Z,0.85
2023-04-07T17:11:25.453Z,0.88
2023-04-07T17:13:23.517Z,1.17
2023-04-07T17:15:24.349Z,1.23
2023-04-07T17:17:24.004Z,1.10
2023-04-07T17:19:22.508Z,0.68
2023-04-07T17:21:20.641Z,1.10
2023-04-07T17:23:18.590Z,1.05
2023-04-07T17:25:18.850Z,0.77
2023-04-07T17:27:18.868Z,0.75
2023-04-07T17:29:17.426Z,1.20
2023-04-07T17:31:15.680Z,1.63
2023-04-07T17:33:13.581Z,1.13
2023-04-07T17:35:11.570Z,1.08
2023-04-07T17:37:09.436Z,1.70
2023-04-07T17:39:07.300Z,1.02
2023-04-07T17:41:05.375Z,0.82
2023-04-07T17:43:04.684Z,0.63
2023-04-07T17:45:03.189Z,1.17
2023-04-07T17:47:02.545Z,1.77
2023-04-07T17:49:01.788Z,2.05
2023-04-07T17:51:00.166Z,1.02
2023-04-07T17:52:58.958Z,1.40
2023-04-07T17:54:57.015Z,1.45
2023-04-07T17:56:55.575Z,1.45
2023-04-07T17:58:55.013Z,1.77
2023-04-07T18:00:53.020Z,0.90
2023-04-07T18:02:51.277Z,1.25
2023-04-07T18:04:49.658Z,1.90
2023-04-07T18:06:47.683Z,0.95
2023-04-07T18:08:46.379Z,1.02
2023-04-07T18:10:44.367Z,1.40
2023-04-07T18:12:42.944Z,1.50
2023-04-07T18:14:42.397Z,1.83
2023-04-07T18:16:40.613Z,1.55
2023-04-07T18:18:38.746Z,0.90
2023-04-07T18:20:36.977Z,0.43
2023-04-07T18:22:34.903Z,1.02
2023-04-07T18:24:34.004Z,0.93
2023-04-07T18:26:32.069Z,1.25
2023-04-07T18:28:30.145Z,0.50
2023-04-07T18:30:29.630Z,1.10
2023-04-07T18:32:27.659Z,3.00
2023-04-07T18:34:26.171Z,0.77
2023-04-07T18:36:27.201Z,0.73
2023-04-07T18:38:25.319Z,1.08
2023-04-07T18:40:23.518Z,0.73
2023-04-07T18:42:21.315Z,0.22
2023-04-07T18:44:19.395Z,0.85
2023-04-07T18:46:19.022Z,0.80
2023-04-07T18:48:17.381Z,1.52
2023-04-07T18:50:15.467Z,1.17
2023-04-07T18:52:13.408Z,0.65
2023-04-07T18:54:12.306Z,1.10
2023-04-07T18:56:10.488Z,0.95
2023-04-07T18:58:08.577Z,1.05
2023-04-07T19:00:06.992Z,0.50
2023-04-07T19:02:06.567Z,1.30
2023-04-07T19:04:04.798Z,0.88
2023-04-07T19:06:03.277Z,1.40
2023-04-07T19:08:01.629Z,1.25
2023-04-07T19:10:01.419Z,0.93
2023-04-07T19:11:59.591Z,1.40
2023-04-07T19:13:57.698Z,0.88
2023-04-07T19:15:55.844Z,1.08
2023-04-07T19:17:55.291Z,0.93
2023-04-07T19:19:53.253Z,1.10
2023-04-07T19:21:51.371Z,1.05
2023-04-07T19:23:49.363Z,1.17
2023-04-07T19:25:47.674Z,0.95
2023-04-07T19:27:46.429Z,0.75
2023-04-07T19:29:44.314Z,0.85
2023-04-07T19:31:42.361Z,1.30
2023-04-07T19:33:41.870Z,1.77
2023-04-07T19:35:40.003Z,1.55
2023-04-07T19:37:40.336Z,2.67
2023-04-07T19:39:38.815Z,10.52
2023-04-07T19:41:37.426Z,5.05
2023-04-07T19:43:35.561Z,3.15
2023-04-07T19:45:33.484Z,1.73
2023-04-07T19:47:31.795Z,2.75
2023-04-07T19:49:31.167Z,2.80
2023-04-07T19:51:29.412Z,1.73
2023-04-07T19:53:29.062Z,2.45
2023-04-07T19:55:26.993Z,2.63
2023-04-07T19:57:25.063Z,3.53
2023-04-07T19:59:22.963Z,2.50
2023-04-07T20:01:21.109Z,2.10
2023-04-07T20:03:19.785Z,2.60
2023-04-07T20:05:20.072Z,1.95
2023-04-07T20:07:18.075Z,2.13
2023-04-07T20:09:16.058Z,2.22
2023-04-07T20:11:14.177Z,2.42
2023-04-07T20:13:12.154Z,2.22
2023-04-07T20:15:11.197Z,1.75
2023-04-07T20:17:09.221Z,1.40
2023-04-07T20:19:07.078Z,2.17
2023-04-07T20:21:07.002Z,4.57
2023-04-07T20:23:05.091Z,4.88
2023-04-07T20:25:04.891Z,11.77
2023-04-07T20:27:03.020Z,4.70
2023-04-07T20:29:00.968Z,2.17
2023-04-07T20:30:59.072Z,2.30
2023-04-07T20:32:57.084Z,2.45
2023-04-07T20:34:55.071Z,2.15
2023-04-07T20:36:54.605Z,6.70
2023-04-07T20:38:52.534Z,3.00
2023-04-07T20:40:50.743Z,2.60
2023-04-07T20:42:48.833Z,2.00
2023-04-07T20:44:49.399Z,1.70
2023-04-07T20:46:47.472Z,8.40
2023-04-07T20:48:45.258Z,4.20
2023-04-07T20:50:43.302Z,5.18
2023-04-07T20:52:43.929Z,18.67
2023-04-07T20:54:44.835Z,27.80
2023-04-07T20:56:44.757Z,9.50
2023-04-07T20:58:42.540Z,18.10
2023-04-07T21:00:40.730Z,12.95
2023-04-07T21:02:39.356Z,3.30
2023-04-07T21:04:38.288Z,2.67
2023-04-07T21:06:36.398Z,4.65
2023-04-07T21:08:35.842Z,5.05
2023-04-07T21:10:33.975Z,3.85
2023-04-07T21:12:32.013Z,4.55
2023-04-07T21:14:30.645Z,3.33
2023-04-07T21:16:28.802Z,3.83
2023-04-07T21:18:27.650Z,2.50
2023-04-07T21:20:25.695Z,2.38
2023-04-07T21:22:23.602Z,4.15
2023-04-07T21:24:23.127Z,2.67
2023-04-07T21:26:21.510Z,3.00
2023-04-07T21:28:19.602Z,4.47
2023-04-07T21:30:18.155Z,4.03
2023-04-07T21:32:15.935Z,4.18
2023-04-07T21:34:14.009Z,4.15
2023-04-07T21:36:13.089Z,3.60
2023-04-07T21:38:11.205Z,3.13
2023-04-07T21:40:11.041Z,4.38
2023-04-07T21:42:09.035Z,5.10
2023-04-07T21:44:09.192Z,3.60
2023-04-07T21:46:07.161Z,3.90
2023-04-07T21:48:05.602Z,3.72
2023-04-07T21:50:03.736Z,4.50
2023-04-07T21:52:01.588Z,3.15
2023-04-07T21:53:59.461Z,2.92
2023-04-07T21:55:58.745Z,3.65
2023-04-07T21:57:56.815Z,3.65
2023-04-07T21:59:54.674Z,3.03
2023-04-07T22:01:52.626Z,3.13
2023-04-07T22:03:50.919Z,2.15
2023-04-07T22:05:49.238Z,2.88
2023-04-07T22:07:48.436Z,1.80
2023-04-07T22:09:47.278Z,3.25
2023-04-07T22:11:46.571Z,2.22
2023-04-07T22:13:44.540Z,2.45
2023-04-07T22:15:42.611Z,3.10
2023-04-07T22:17:41.437Z,2.17
2023-04-07T22:19:39.448Z,2.35
2023-04-07T22:21:37.544Z,3.55
2023-04-07T22:23:35.518Z,2.42
2023-04-07T22:25:33.421Z,3.28
2023-04-07T22:27:32.872Z,3.22
2023-04-07T22:29:30.817Z,2.50
2023-04-07T22:31:28.603Z,2.97
2023-04-07T22:33:26.551Z,2.63
2023-04-07T22:35:24.525Z,3.13
2023-04-07T22:37:22.451Z,2.47
2023-04-07T22:39:20.427Z,3.17
2023-04-07T22:41:18.284Z,3.15
2023-04-07T22:43:17.767Z,3.00
2023-04-07T22:45:15.936Z,2.85
2023-04-07T22:47:21.026Z,3.70
2023-04-07T22:49:19.338Z,4.10
2023-04-07T22:51:17.332Z,2.78
2023-04-07T22:53:15.283Z,4.82
2023-04-07T22:55:13.157Z,4.95
2023-04-07T22:57:11.041Z,5.68
2023-04-07T22:59:10.367Z,5.45
2023-04-07T23:01:08.287Z,4.25
2023-04-07T23:03:06.452Z,4.00
2023-04-07T23:05:06.686Z,5.32
2023-04-07T23:07:04.476Z,5.03
2023-04-07T23:09:02.426Z,5.05
2023-04-07T23:11:00.344Z,3.50
2023-04-07T23:12:58.352Z,3.47
2023-04-07T23:14:57.634Z,4.95
2023-04-07T23:16:56.290Z,3.33
2023-04-07T23:18:54.344Z,4.53
2023-04-07T23:20:52.923Z,3.40
2023-04-07T23:22:50.912Z,4.35
2023-04-07T23:24:48.795Z,2.88
2023-04-07T23:26:46.715Z,2.78
2023-04-07T23:28:44.719Z,3.10
2023-04-07T23:30:44.055Z,3.20
2023-04-07T23:32:42.322Z,3.50
2023-04-07T23:34:40.195Z,2.28
2023-04-07T23:36:39.917Z,3.17
2023-04-07T23:38:39.661Z,4.68
2023-04-07T23:40:37.605Z,4.30
2023-04-07T23:42:35.412Z,4.43
2023-04-07T23:44:33.387Z,4.30
2023-04-07T23:46:32.665Z,3.22
2023-04-07T23:48:31.484Z,3.92
2023-04-07T23:50:29.270Z,4.13
2023-04-07T23:52:27.110Z,3.75
2023-04-07T23:54:25.146Z,5.97
2023-04-07T23:56:23.282Z,6.18
2023-04-07T23:58:21.133Z,4.65
